createdAt,value
2022-09-06T00:00:13.860Z,14.22
2022-09-06T00:02:41.454Z,14.21
2022-09-06T00:05:09.766Z,14.15
2022-09-06T00:07:36.822Z,14.19
2022-09-06T00:10:04.878Z,14.19
2022-09-06T00:12:32.246Z,14.24
2022-09-06T00:14:58.767Z,14.20
2022-09-06T00:17:25.407Z,14.08
2022-09-06T00:19:51.988Z,14.14
2022-09-06T00:22:18.795Z,14.07
2022-09-06T00:24:45.333Z,14.08
2022-09-06T00:27:12.006Z,14.10
2022-09-06T00:29:38.413Z,14.13
2022-09-06T00:32:05.079Z,14.11
2022-09-06T00:34:31.763Z,14.08
2022-09-06T00:36:58.282Z,14.07
2022-09-06T00:39:24.877Z,14.07
2022-09-06T00:41:51.362Z,14.08
2022-09-06T00:44:17.971Z,14.03
2022-09-06T00:46:46.064Z,14.01
2022-09-06T00:49:24.212Z,14.00
2022-09-06T00:51:57.755Z,13.98
2022-09-06T00:54:24.497Z,13.91
2022-09-06T00:56:51.151Z,13.92
2022-09-06T00:59:17.850Z,13.84
2022-09-06T01:01:44.453Z,13.84
2022-09-06T01:04:11.024Z,13.79
2022-09-06T01:06:51.859Z,13.87
2022-09-06T01:09:48.428Z,13.82
2022-09-06T01:12:38.327Z,13.86
2022-09-06T01:15:14.543Z,13.80
2022-09-06T01:17:46.588Z,13.75
2022-09-06T01:20:19.290Z,13.71
2022-09-06T01:22:57.618Z,13.75
2022-09-06T01:25:42.997Z,13.75
2022-09-06T01:28:33.210Z,13.78
2022-09-06T01:31:14.054Z,13.70
2022-09-06T01:33:50.815Z,13.70
2022-09-06T01:36:22.873Z,13.70
2022-09-06T01:38:49.648Z,13.66
2022-09-06T01:41:16.149Z,13.65
2022-09-06T01:43:47.424Z,13.65
2022-09-06T01:46:24.709Z,13.67
2022-09-06T01:48:57.448Z,13.65
2022-09-06T01:51:49.751Z,13.68
2022-09-06T01:54:28.329Z,13.61
2022-09-06T01:56:57.804Z,13.63
2022-09-06T01:59:40.273Z,13.59
2022-09-06T02:02:14.456Z,13.57
2022-09-06T02:05:01.402Z,13.51
2022-09-06T02:07:30.917Z,13.55
2022-09-06T02:10:07.755Z,13.49
2022-09-06T02:12:37.085Z,13.45
2022-09-06T02:15:32.808Z,13.46
2022-09-06T02:18:06.075Z,13.45
2022-09-06T02:20:36.591Z,13.39
2022-09-06T02:23:06.006Z,13.39
2022-09-06T02:25:42.020Z,13.34
2022-09-06T02:28:10.112Z,13.34
2022-09-06T02:30:42.017Z,13.30
2022-09-06T02:33:14.418Z,13.32
2022-09-06T02:35:47.650Z,13.27
2022-09-06T02:38:15.099Z,13.27
2022-09-06T02:40:43.231Z,13.23
2022-09-06T02:43:10.210Z,13.25
2022-09-06T02:45:37.121Z,13.23
2022-09-06T02:48:04.066Z,13.24
2022-09-06T02:50:30.838Z,13.20
2022-09-06T02:53:06.213Z,13.24
2022-09-06T02:55:33.340Z,13.18
2022-09-06T02:57:59.990Z,13.11
2022-09-06T03:00:28.992Z,13.15
2022-09-06T03:02:56.413Z,13.15
2022-09-06T03:05:24.488Z,13.12
2022-09-06T03:07:51.385Z,13.07
2022-09-06T03:10:17.929Z,13.02
2022-09-06T03:12:45.126Z,13.09
2022-09-06T03:15:14.399Z,13.04
2022-09-06T03:17:41.554Z,13.05
2022-09-06T03:20:09.664Z,13.05
2022-09-06T03:22:37.592Z,13.05
2022-09-06T03:25:04.346Z,12.99
2022-09-06T03:27:31.871Z,13.06
2022-09-06T03:29:58.362Z,13.04
2022-09-06T03:32:25.187Z,12.98
2022-09-06T03:34:51.918Z,12.96
2022-09-06T03:37:19.547Z,12.99
2022-09-06T03:39:46.118Z,13.04
2022-09-06T03:42:12.568Z,13.02
2022-09-06T03:44:39.150Z,12.98
2022-09-06T03:47:05.717Z,13.01
2022-09-06T03:49:32.245Z,12.99
2022-09-06T03:51:58.778Z,12.99
2022-09-06T03:54:25.244Z,13.01
2022-09-06T03:56:51.791Z,12.99
2022-09-06T03:59:18.290Z,12.92
2022-09-06T04:01:44.919Z,12.92
2022-09-06T04:04:11.730Z,12.89
2022-09-06T04:06:38.299Z,12.92
2022-09-06T04:09:04.857Z,12.89
2022-09-06T04:11:31.279Z,12.88
2022-09-06T04:13:57.798Z,12.94
2022-09-06T04:16:24.387Z,12.90
2022-09-06T04:18:50.902Z,12.89
2022-09-06T04:21:17.675Z,12.85
2022-09-06T04:23:44.204Z,12.82
2022-09-06T04:26:10.896Z,12.94
2022-09-06T04:28:37.664Z,12.84
2022-09-06T04:31:05.363Z,12.93
2022-09-06T04:33:34.207Z,12.96
2022-09-06T04:36:02.608Z,12.95
2022-09-06T04:38:31.254Z,13.00
2022-09-06T04:40:57.842Z,13.01
2022-09-06T04:43:24.506Z,13.04
2022-09-06T04:45:51.671Z,13.02
2022-09-06T04:48:18.552Z,13.05
2022-09-06T04:50:45.139Z,13.12
2022-09-06T04:53:11.571Z,13.18
2022-09-06T04:55:38.279Z,13.19
2022-09-06T04:58:05.489Z,13.27
2022-09-06T05:00:33.859Z,13.45
2022-09-06T05:03:00.411Z,13.47
2022-09-06T05:05:27.660Z,13.50
2022-09-06T05:07:54.880Z,13.33
2022-09-06T05:10:22.694Z,13.37
2022-09-06T05:12:50.665Z,13.61
2022-09-06T05:15:18.475Z,13.65
2022-09-06T05:17:45.052Z,13.62
2022-09-06T05:20:11.610Z,13.78
2022-09-06T05:22:38.907Z,14.04
2022-09-06T05:25:06.245Z,14.62
2022-09-06T05:27:32.800Z,15.12
2022-09-06T05:29:59.257Z,15.50
2022-09-06T05:32:25.817Z,15.95
2022-09-06T05:34:52.391Z,16.72
2022-09-06T05:37:18.797Z,16.93
2022-09-06T05:39:45.404Z,18.02
2022-09-06T05:42:14.874Z,16.31
2022-09-06T05:44:43.756Z,16.78
2022-09-06T05:47:10.277Z,17.65
2022-09-06T05:49:36.783Z,18.00
2022-09-06T05:52:03.244Z,18.98
2022-09-06T05:54:29.790Z,19.90
2022-09-06T05:56:56.261Z,19.49
2022-09-06T05:59:22.792Z,19.82
2022-09-06T06:01:50.251Z,18.82
2022-09-06T06:04:18.630Z,17.79
2022-09-06T06:06:49.373Z,17.56
2022-09-06T06:09:16.838Z,18.14
2022-09-06T06:11:43.998Z,18.26
2022-09-06T06:14:10.890Z,17.77
2022-09-06T06:16:37.546Z,18.11
2022-09-06T06:19:04.123Z,19.13
2022-09-06T06:21:31.842Z,20.05
2022-09-06T06:24:02.329Z,20.25
2022-09-06T06:26:31.643Z,19.23
2022-09-06T06:29:02.243Z,18.41
2022-09-06T06:31:30.440Z,18.52
2022-09-06T06:33:58.255Z,19.38
2022-09-06T06:36:26.999Z,20.64
2022-09-06T06:38:55.467Z,20.41
2022-09-06T06:41:24.634Z,20.16
2022-09-06T06:43:59.271Z,19.64
2022-09-06T06:46:29.356Z,19.54
2022-09-06T06:48:55.978Z,19.17
2022-09-06T06:51:23.808Z,19.05
2022-09-06T06:53:51.494Z,18.94
2022-09-06T06:56:23.649Z,18.90
2022-09-06T06:58:52.424Z,18.61
2022-09-06T07:01:21.021Z,18.38
2022-09-06T07:03:48.309Z,18.51
2022-09-06T07:06:15.904Z,18.44
2022-09-06T07:08:43.092Z,18.57
2022-09-06T07:11:12.228Z,18.52
2022-09-06T07:13:38.997Z,18.69
2022-09-06T07:16:13.595Z,18.44
2022-09-06T07:18:42.338Z,18.70
2022-09-06T07:24:10.594Z,18.94
2022-09-06T07:26:39.563Z,18.78
2022-09-06T07:29:07.793Z,19.37
2022-09-06T07:34:22.084Z,19.45
2022-09-06T07:36:51.627Z,20.04
2022-09-06T07:39:18.187Z,19.53
2022-09-06T07:41:44.727Z,19.64
2022-09-06T07:44:11.170Z,19.83
2022-09-06T07:46:37.749Z,20.16
2022-09-06T07:49:05.376Z,20.55
2022-09-06T07:51:32.072Z,20.82
2022-09-06T07:54:19.347Z,20.86
2022-09-06T07:56:45.171Z,20.11
2022-09-06T07:59:11.637Z,20.14
2022-09-06T08:01:39.586Z,20.07
2022-09-06T08:04:09.073Z,20.37
2022-09-06T08:09:25.210Z,20.16
2022-09-06T08:11:52.727Z,19.92
2022-09-06T08:14:19.948Z,20.14
2022-09-06T08:16:46.521Z,20.54
2022-09-06T08:19:14.341Z,20.39
2022-09-06T08:21:40.939Z,21.03
2022-09-06T08:24:08.513Z,21.12
2022-09-06T08:26:39.852Z,20.62
2022-09-06T08:29:08.641Z,20.07
2022-09-06T08:31:37.276Z,20.12
2022-09-06T08:34:04.244Z,20.57
2022-09-06T08:36:30.933Z,20.99
2022-09-06T08:39:01.853Z,21.62
2022-09-06T08:41:51.182Z,21.41
2022-09-06T08:47:08.187Z,22.36
2022-09-06T08:49:45.043Z,22.42
2022-09-06T08:55:39.031Z,23.04
2022-09-06T08:58:11.413Z,22.61
2022-09-06T09:00:38.826Z,22.58
2022-09-06T09:03:17.143Z,22.77
2022-09-06T09:05:48.346Z,22.24
2022-09-06T09:08:29.951Z,22.72
2022-09-06T09:11:03.074Z,22.62
2022-09-06T09:13:47.565Z,22.61
2022-09-06T09:16:15.379Z,22.85
2022-09-06T09:18:46.533Z,23.08
2022-09-06T09:21:25.672Z,22.89
2022-09-06T09:23:58.847Z,23.55
2022-09-06T09:26:28.313Z,23.29
2022-09-06T09:29:10.290Z,23.24
2022-09-06T09:31:48.779Z,23.68
2022-09-06T09:34:33.659Z,24.20
2022-09-06T09:40:28.715Z,24.34
2022-09-06T09:43:08.950Z,24.31
2022-09-06T09:45:35.541Z,24.48
2022-09-06T09:48:24.839Z,24.47
2022-09-06T09:50:51.598Z,24.31
2022-09-06T09:53:22.215Z,24.84
2022-09-06T09:55:56.113Z,24.54
2022-09-06T09:58:22.777Z,24.65
2022-09-06T10:01:10.125Z,24.70
2022-09-06T10:09:44.508Z,25.30
2022-09-06T10:12:31.960Z,25.50
2022-09-06T10:15:01.245Z,25.70
2022-09-06T10:17:33.673Z,25.64
2022-09-06T10:20:18.983Z,25.39
2022-09-06T10:22:56.216Z,26.09
2022-09-06T10:26:00.513Z,25.83
2022-09-06T10:28:42.028Z,26.50
2022-09-06T10:31:14.258Z,26.52
2022-09-06T10:34:18.208Z,26.29
2022-09-06T10:37:08.666Z,26.56
2022-09-06T10:39:41.446Z,26.83
2022-09-06T10:42:10.907Z,27.15
2022-09-06T10:45:08.753Z,26.92
2022-09-06T10:47:49.291Z,26.41
2022-09-06T10:50:17.044Z,26.88
2022-09-06T10:52:47.749Z,27.08
2022-09-06T10:55:17.576Z,26.84
2022-09-06T11:00:46.649Z,27.10
2022-09-06T11:06:28.241Z,27.19
2022-09-06T11:09:13.401Z,27.24
2022-09-06T11:11:49.872Z,27.32
2022-09-06T11:14:18.751Z,27.44
2022-09-06T11:17:09.665Z,26.98
2022-09-06T11:19:44.216Z,27.06
2022-09-06T11:22:47.851Z,27.07
2022-09-06T11:30:07.512Z,27.52
2022-09-06T11:32:38.963Z,27.27
2022-09-06T11:35:23.749Z,27.28
2022-09-06T11:38:00.478Z,27.80
2022-09-06T11:40:29.675Z,27.38
2022-09-06T11:42:58.633Z,27.43
2022-09-06T11:45:51.772Z,27.04
2022-09-06T11:48:24.216Z,27.54
2022-09-06T11:50:53.761Z,27.95
2022-09-06T11:53:26.271Z,27.10
2022-09-06T11:56:02.212Z,27.54
2022-09-06T11:58:37.429Z,27.38
2022-09-06T12:01:13.219Z,28.30
2022-09-06T12:04:04.928Z,27.59
2022-09-06T12:07:03.675Z,27.84
2022-09-06T12:09:44.075Z,27.98
2022-09-06T12:12:16.247Z,27.26
2022-09-06T12:14:46.802Z,27.11
2022-09-06T12:17:13.243Z,27.37
2022-09-06T12:19:47.409Z,27.61
2022-09-06T12:22:29.380Z,27.13
2022-09-06T12:24:57.201Z,27.83
2022-09-06T12:27:26.919Z,27.56
2022-09-06T12:29:59.464Z,27.86
2022-09-06T12:32:36.060Z,27.71
2022-09-06T12:38:04.969Z,27.72
2022-09-06T12:40:40.773Z,28.00
2022-09-06T12:43:10.548Z,27.96
2022-09-06T12:45:43.093Z,27.84
2022-09-06T12:48:13.081Z,27.56
2022-09-06T12:50:40.528Z,27.96
2022-09-06T12:53:25.000Z,27.30
2022-09-06T12:56:04.531Z,27.31
2022-09-06T12:58:31.050Z,27.43
2022-09-06T13:01:10.756Z,27.67
2022-09-06T13:03:49.042Z,28.07
2022-09-06T13:06:24.491Z,28.47
2022-09-06T13:08:57.161Z,27.94
2022-09-06T13:11:39.844Z,28.03
2022-09-06T13:14:17.570Z,27.98
2022-09-06T13:16:48.443Z,27.87
2022-09-06T13:19:17.873Z,27.79
2022-09-06T13:21:46.293Z,27.70
2022-09-06T13:24:46.619Z,28.26
2022-09-06T13:27:25.191Z,28.23
2022-09-06T13:29:57.138Z,28.39
2022-09-06T13:32:23.976Z,28.38
2022-09-06T13:34:57.001Z,27.86
2022-09-06T13:37:33.657Z,27.83
2022-09-06T13:40:04.967Z,27.90
2022-09-06T13:42:38.173Z,28.13
2022-09-06T13:45:26.346Z,28.10
2022-09-06T13:48:03.501Z,27.98
2022-09-06T13:50:41.641Z,28.42
2022-09-06T13:53:08.650Z,28.70
2022-09-06T13:55:35.140Z,28.36
2022-09-06T13:58:01.606Z,28.70
2022-09-06T14:00:28.171Z,28.47
2022-09-06T14:02:55.595Z,28.23
2022-09-06T14:05:22.531Z,27.96
2022-09-06T14:07:49.107Z,27.74
2022-09-06T14:10:15.660Z,28.02
2022-09-06T14:12:42.176Z,27.94
2022-09-06T14:15:10.114Z,27.89
2022-09-06T14:17:36.710Z,27.74
2022-09-06T14:20:03.676Z,27.14
2022-09-06T14:22:30.472Z,27.26
2022-09-06T14:24:56.998Z,27.30
2022-09-06T14:27:23.788Z,27.15
2022-09-06T14:29:50.400Z,27.41
2022-09-06T14:32:22.233Z,26.87
2022-09-06T14:34:49.171Z,26.92
2022-09-06T14:37:15.700Z,26.96
2022-09-06T14:39:42.328Z,26.98
2022-09-06T14:42:09.002Z,27.11
2022-09-06T14:44:35.475Z,27.39
2022-09-06T14:47:01.977Z,27.08
2022-09-06T14:49:28.424Z,27.13
2022-09-06T14:51:54.871Z,27.32
2022-09-06T14:54:25.037Z,26.99
2022-09-06T14:56:53.818Z,27.00
2022-09-06T14:59:20.366Z,26.96
2022-09-06T15:01:46.971Z,27.14
2022-09-06T15:04:13.564Z,26.87
2022-09-06T15:06:44.763Z,27.06
2022-09-06T15:09:11.471Z,26.78
2022-09-06T15:11:43.765Z,26.67
2022-09-06T15:14:25.430Z,26.59
2022-09-06T15:16:56.406Z,26.46
2022-09-06T15:19:24.860Z,26.45
2022-09-06T15:21:51.549Z,26.48
2022-09-06T15:24:18.571Z,26.20
2022-09-06T15:26:45.950Z,26.23
2022-09-06T15:29:13.717Z,26.12
2022-09-06T15:31:41.844Z,26.10
2022-09-06T15:34:09.769Z,26.28
2022-09-06T15:36:37.310Z,26.13
2022-09-06T15:39:05.768Z,26.14
2022-09-06T15:41:35.581Z,26.23
2022-09-06T15:44:13.076Z,26.25
2022-09-06T15:46:47.087Z,26.25
2022-09-06T15:49:25.726Z,26.10
2022-09-06T15:51:55.170Z,26.02
2022-09-06T15:54:42.066Z,26.05
2022-09-06T15:57:08.732Z,25.90
2022-09-06T15:59:35.268Z,25.75
2022-09-06T16:02:01.882Z,25.68
2022-09-06T16:04:28.384Z,25.49
2022-09-06T16:06:56.688Z,25.56
2022-09-06T16:09:23.346Z,25.41
2022-09-06T16:11:49.844Z,25.23
2022-09-06T16:14:16.554Z,25.21
2022-09-06T16:16:43.681Z,25.30
2022-09-06T16:19:12.448Z,25.35
2022-09-06T16:21:41.658Z,25.05
2022-09-06T16:24:11.196Z,25.18
2022-09-06T16:26:43.382Z,25.13
2022-09-06T16:29:11.773Z,24.98
2022-09-06T16:31:40.568Z,24.97
2022-09-06T16:34:08.839Z,24.93
2022-09-06T16:36:35.437Z,24.81
2022-09-06T16:39:02.385Z,24.37
2022-09-06T16:41:39.337Z,24.16
2022-09-06T16:44:07.567Z,24.07
2022-09-06T16:46:34.656Z,23.96
2022-09-06T16:49:02.854Z,23.81
2022-09-06T16:51:31.247Z,23.78
2022-09-06T16:53:59.115Z,23.71
2022-09-06T16:56:28.743Z,23.52
2022-09-06T16:58:57.537Z,23.41
2022-09-06T17:01:25.924Z,23.37
2022-09-06T17:03:52.804Z,23.35
2022-09-06T17:06:20.270Z,23.19
2022-09-06T17:08:47.614Z,23.00
2022-09-06T17:11:16.813Z,22.91
2022-09-06T17:13:45.540Z,22.81
2022-09-06T17:16:31.595Z,22.73
2022-09-06T17:18:59.503Z,22.64
2022-09-06T17:21:26.091Z,22.53
2022-09-06T17:23:53.308Z,22.51
2022-09-06T17:26:21.349Z,22.28
2022-09-06T17:28:49.699Z,22.28
2022-09-06T17:31:22.278Z,22.00
2022-09-06T17:33:53.446Z,21.99
2022-09-06T17:36:23.663Z,21.71
2022-09-06T17:38:53.256Z,21.62
2022-09-06T17:41:28.260Z,21.64
2022-09-06T17:43:55.380Z,21.43
2022-09-06T17:46:28.432Z,21.40
2022-09-06T17:48:56.100Z,21.23
2022-09-06T17:51:23.445Z,20.95
2022-09-06T17:53:50.269Z,21.08
2022-09-06T17:56:18.139Z,20.86
2022-09-06T17:59:02.571Z,20.95
2022-09-06T18:01:32.255Z,20.85
2022-09-06T18:03:59.536Z,20.82
2022-09-06T18:06:28.660Z,20.75
2022-09-06T18:08:58.020Z,20.60
2022-09-06T18:11:27.584Z,20.56
2022-09-06T18:13:57.060Z,20.10
2022-09-06T18:16:24.231Z,20.16
2022-09-06T18:18:53.979Z,19.75
2022-09-06T18:21:21.680Z,19.58
2022-09-06T18:23:48.221Z,19.83
2022-09-06T18:26:14.796Z,20.00
2022-09-06T18:28:41.340Z,19.59
2022-09-06T18:31:09.144Z,20.00
2022-09-06T18:33:36.308Z,20.00
2022-09-06T18:36:04.731Z,19.56
2022-09-06T18:38:31.458Z,19.94
2022-09-06T18:41:00.059Z,19.85
2022-09-06T18:43:39.827Z,19.72
2022-09-06T18:46:08.901Z,19.41
2022-09-06T18:48:36.967Z,19.10
2022-09-06T18:51:14.882Z,19.56
2022-09-06T18:53:45.720Z,19.36
2022-09-06T18:56:13.698Z,19.35
2022-09-06T18:58:40.569Z,19.28
2022-09-06T19:01:28.402Z,19.34
2022-09-06T19:03:59.409Z,19.24
2022-09-06T19:06:28.137Z,19.15
2022-09-06T19:08:58.598Z,19.08
2022-09-06T19:11:25.563Z,19.10
2022-09-06T19:13:53.673Z,19.04
2022-09-06T19:16:22.301Z,18.98
2022-09-06T19:18:49.440Z,19.01
2022-09-06T19:21:19.138Z,18.98
2022-09-06T19:23:48.289Z,18.88
2022-09-06T19:26:18.281Z,18.84
2022-09-06T19:28:55.746Z,18.82
2022-09-06T19:31:24.129Z,18.55
2022-09-06T19:33:52.108Z,18.66
2022-09-06T19:36:20.344Z,18.54
2022-09-06T19:39:03.226Z,18.46
2022-09-06T19:41:31.698Z,18.50
2022-09-06T19:43:58.861Z,18.40
2022-09-06T19:46:26.759Z,18.36
2022-09-06T19:48:55.935Z,18.39
2022-09-06T19:51:23.133Z,18.15
2022-09-06T19:53:55.090Z,18.21
2022-09-06T19:56:34.167Z,18.20
2022-09-06T19:59:03.755Z,18.09
2022-09-06T20:01:32.726Z,18.17
2022-09-06T20:04:02.382Z,17.85
2022-09-06T20:06:29.692Z,18.05
2022-09-06T20:08:58.173Z,18.01
2022-09-06T20:11:28.228Z,17.91
2022-09-06T20:13:55.323Z,17.81
2022-09-06T20:16:24.757Z,17.90
2022-09-06T20:18:51.454Z,17.72
2022-09-06T20:21:18.511Z,17.79
2022-09-06T20:23:52.579Z,17.78
2022-09-06T20:26:20.341Z,17.66
2022-09-06T20:28:47.440Z,17.63
2022-09-06T20:31:16.482Z,17.56
2022-09-06T20:33:48.488Z,17.28
2022-09-06T20:36:17.033Z,17.23
2022-09-06T20:38:44.596Z,16.95
2022-09-06T20:41:23.428Z,16.95
2022-09-06T20:43:51.937Z,16.87
2022-09-06T20:46:21.311Z,17.16
2022-09-06T20:48:48.058Z,17.13
2022-09-06T20:51:19.776Z,16.96
2022-09-06T20:53:55.750Z,16.79
2022-09-06T20:56:25.368Z,16.76
2022-09-06T20:58:56.945Z,17.00
2022-09-06T21:01:26.039Z,16.77
2022-09-06T21:03:55.090Z,17.02
2022-09-06T21:06:22.852Z,16.85
2022-09-06T21:08:50.538Z,16.79
2022-09-06T21:11:17.896Z,16.54
2022-09-06T21:13:53.547Z,16.69
2022-09-06T21:16:24.705Z,16.83
2022-09-06T21:18:53.880Z,16.76
2022-09-06T21:21:22.286Z,16.87
2022-09-06T21:23:49.422Z,16.43
2022-09-06T21:26:16.039Z,16.42
2022-09-06T21:28:43.299Z,16.88
2022-09-06T21:31:12.045Z,16.85
2022-09-06T21:33:40.832Z,16.73
2022-09-06T21:36:19.287Z,16.46
2022-09-06T21:38:49.132Z,16.41
2022-09-06T21:41:17.417Z,16.39
2022-09-06T21:43:43.994Z,16.66
2022-09-06T21:46:18.247Z,16.65
2022-09-06T21:48:47.626Z,16.64
2022-09-06T21:51:18.500Z,16.29
2022-09-06T21:53:47.448Z,16.50
2022-09-06T21:56:15.665Z,16.65
2022-09-06T21:58:44.175Z,16.59
2022-09-06T22:03:09.329Z,16.56
2022-09-06T22:05:35.838Z,16.49
2022-09-06T22:08:02.545Z,16.46
2022-09-06T22:10:29.130Z,16.49
2022-09-06T22:12:55.547Z,16.54
2022-09-06T22:15:23.615Z,16.54
2022-09-06T22:17:50.194Z,16.42
2022-09-06T22:20:17.060Z,16.39
2022-09-06T22:22:46.066Z,16.27
2022-09-06T22:25:13.803Z,16.31
2022-09-06T22:27:41.042Z,16.33
2022-09-06T22:30:08.445Z,16.23
2022-09-06T22:32:35.002Z,16.13
2022-09-06T22:35:01.478Z,16.12
2022-09-06T22:37:27.954Z,16.17
2022-09-06T22:39:54.523Z,16.16
2022-09-06T22:42:21.018Z,16.09
2022-09-06T22:44:47.680Z,16.09
2022-09-06T22:47:14.260Z,15.98
2022-09-06T22:49:40.674Z,15.99
2022-09-06T22:52:07.180Z,15.96
2022-09-06T22:54:33.714Z,15.93
2022-09-06T22:57:00.345Z,15.96
2022-09-06T22:59:26.780Z,15.92
2022-09-06T23:01:53.301Z,15.96
2022-09-06T23:04:19.983Z,16.02
2022-09-06T23:06:46.524Z,15.94
2022-09-06T23:09:13.048Z,15.88
2022-09-06T23:11:39.617Z,15.89
2022-09-06T23:14:06.198Z,15.79
2022-09-06T23:16:32.853Z,15.71
2022-09-06T23:18:59.475Z,15.72
2022-09-06T23:21:26.502Z,15.79
2022-09-06T23:23:54.904Z,15.77
2022-09-06T23:26:24.369Z,15.82
2022-09-06T23:28:56.405Z,15.79
2022-09-06T23:31:25.552Z,15.67
2022-09-06T23:33:59.816Z,15.65
2022-09-06T23:36:27.764Z,15.66
2022-09-06T23:38:55.287Z,15.67
2022-09-06T23:41:22.069Z,15.67
2022-09-06T23:43:48.643Z,15.66
2022-09-06T23:46:15.198Z,15.65
2022-09-06T23:48:43.270Z,15.65
2022-09-06T23:51:10.220Z,15.66
2022-09-06T23:53:36.838Z,15.65
2022-09-06T23:56:03.602Z,15.63
2022-09-06T23:58:30.262Z,15.64
